createdAt,value
2023-10-31T00:01:59.454Z,80.51
2023-10-31T00:05:01.930Z,79.31
2023-10-31T00:08:04.535Z,79.44
2023-10-31T00:11:07.069Z,78.72
2023-10-31T00:14:28.973Z,77.38
2023-10-31T00:17:32.296Z,76.25
2023-10-31T00:20:34.681Z,76.86
2023-10-31T00:23:44.270Z,76.78
2023-10-31T00:26:46.677Z,75.25
2023-10-31T00:29:49.116Z,74.41
2023-10-31T00:32:51.540Z,72.85
2023-10-31T00:35:53.889Z,72.83
2023-10-31T00:38:56.202Z,72.11
2023-10-31T00:41:58.572Z,72.63
2023-10-31T00:45:00.908Z,72.91
2023-10-31T00:48:03.858Z,72.77
2023-10-31T00:51:06.374Z,73.69
2023-10-31T00:54:08.779Z,72.01
2023-10-31T00:57:11.212Z,70.59
2023-10-31T01:00:13.936Z,72.05
2023-10-31T01:03:16.456Z,71.82
2023-10-31T01:06:18.887Z,72.29
2023-10-31T01:09:22.261Z,72.31
2023-10-31T01:12:24.647Z,73.74
2023-10-31T01:15:26.990Z,74.55
2023-10-31T01:18:29.331Z,75.33
2023-10-31T01:21:31.681Z,73.51
2023-10-31T01:24:34.093Z,72.78
2023-10-31T01:27:36.425Z,72.63
2023-10-31T01:30:38.815Z,73.03
2023-10-31T01:33:41.337Z,73.26
2023-10-31T01:36:43.735Z,70.10
2023-10-31T01:39:46.649Z,69.50
2023-10-31T01:42:49.648Z,68.61
2023-10-31T01:45:52.011Z,71.16
2023-10-31T01:48:54.380Z,74.29
2023-10-31T01:51:56.692Z,72.67
2023-10-31T01:55:00.480Z,72.00
2023-10-31T01:58:03.525Z,71.66
2023-10-31T02:01:06.589Z,72.50
2023-10-31T02:04:08.948Z,72.77
2023-10-31T02:07:11.433Z,74.64
2023-10-31T02:10:15.049Z,73.67
2023-10-31T02:13:19.088Z,74.38
2023-10-31T02:16:21.538Z,75.46
2023-10-31T02:19:23.975Z,73.38
2023-10-31T02:22:26.355Z,75.69
2023-10-31T02:25:28.925Z,75.11
2023-10-31T02:28:32.053Z,75.90
2023-10-31T02:31:34.620Z,75.48
2023-10-31T02:34:37.001Z,73.22
2023-10-31T02:37:40.297Z,73.13
2023-10-31T02:40:42.802Z,72.72
2023-10-31T02:43:45.303Z,74.37
2023-10-31T02:46:48.024Z,77.07
2023-10-31T02:49:50.394Z,78.60
2023-10-31T02:52:52.783Z,78.22
2023-10-31T02:55:55.194Z,77.30
2023-10-31T02:58:57.571Z,76.36
2023-10-31T03:01:59.989Z,76.31
2023-10-31T03:05:03.277Z,76.63
2023-10-31T03:08:05.759Z,76.37
2023-10-31T03:11:08.190Z,76.33
2023-10-31T03:14:10.593Z,76.00
2023-10-31T03:17:13.062Z,76.23
2023-10-31T03:20:15.522Z,76.90
2023-10-31T03:23:17.895Z,78.62
2023-10-31T03:26:21.754Z,76.65
2023-10-31T03:29:24.126Z,76.63
2023-10-31T03:32:26.528Z,75.61
2023-10-31T03:35:28.936Z,76.07
2023-10-31T03:38:31.395Z,74.55
2023-10-31T03:41:33.846Z,73.65
2023-10-31T03:44:36.261Z,73.77
2023-10-31T03:47:38.652Z,74.87
2023-10-31T03:50:41.045Z,73.78
2023-10-31T03:53:43.421Z,73.94
2023-10-31T03:56:46.104Z,73.63
2023-10-31T03:59:49.106Z,72.38
2023-10-31T04:02:51.636Z,73.58
2023-10-31T04:05:54.068Z,73.57
2023-10-31T04:08:56.766Z,73.70
2023-10-31T04:11:59.185Z,73.41
2023-10-31T04:15:01.840Z,74.80
2023-10-31T04:18:05.015Z,73.20
2023-10-31T04:21:07.558Z,74.25
2023-10-31T04:24:09.957Z,74.54
2023-10-31T04:27:12.337Z,74.13
2023-10-31T04:30:16.043Z,73.86
2023-10-31T04:33:18.397Z,75.01
2023-10-31T04:36:20.762Z,75.68
2023-10-31T04:39:23.144Z,76.69
2023-10-31T04:42:25.578Z,76.91
2023-10-31T04:45:27.909Z,77.06
2023-10-31T04:48:30.360Z,77.97
2023-10-31T04:51:39.288Z,76.36
2023-10-31T04:54:41.724Z,76.50
2023-10-31T04:57:44.105Z,77.54
2023-10-31T05:00:46.545Z,78.07
2023-10-31T05:03:54.206Z,78.71
2023-10-31T05:07:01.137Z,79.44
2023-10-31T05:10:03.688Z,78.14
2023-10-31T05:13:06.759Z,78.52
2023-10-31T05:16:09.221Z,78.29
2023-10-31T05:19:11.872Z,78.14
2023-10-31T05:22:14.253Z,77.84
2023-10-31T05:25:16.723Z,78.04
2023-10-31T05:28:19.115Z,77.97
2023-10-31T05:31:21.489Z,78.11
2023-10-31T05:34:23.826Z,77.58
2023-10-31T05:37:26.609Z,77.83
2023-10-31T05:40:30.562Z,76.99
2023-10-31T05:43:34.963Z,76.79
2023-10-31T05:46:43.501Z,77.80
2023-10-31T05:49:45.945Z,78.76
2023-10-31T05:52:48.897Z,78.67
2023-10-31T05:55:51.453Z,77.80
2023-10-31T05:58:53.825Z,78.09
2023-10-31T06:01:56.238Z,77.17
2023-10-31T06:04:58.648Z,77.65
2023-10-31T06:08:01.047Z,76.94
2023-10-31T06:11:04.558Z,77.21
2023-10-31T06:14:06.917Z,78.39
2023-10-31T06:17:09.331Z,79.09
2023-10-31T06:20:12.463Z,79.94
2023-10-31T06:23:14.966Z,79.19
2023-10-31T06:26:17.426Z,77.80
2023-10-31T06:29:37.601Z,76.44
2023-10-31T06:32:42.207Z,76.86
2023-10-31T06:35:44.666Z,75.84
2023-10-31T06:38:47.005Z,75.06
2023-10-31T06:41:49.620Z,76.23
2023-10-31T06:44:51.982Z,75.18
2023-10-31T06:47:55.429Z,74.65
2023-10-31T06:50:57.813Z,74.50
2023-10-31T06:54:00.145Z,74.60
2023-10-31T06:57:05.349Z,73.07
2023-10-31T07:00:10.785Z,72.45
2023-10-31T07:03:16.487Z,72.87
2023-10-31T07:06:19.081Z,72.69
2023-10-31T07:09:21.506Z,73.22
2023-10-31T07:12:23.860Z,70.95
2023-10-31T07:15:26.929Z,72.71
2023-10-31T07:18:29.341Z,72.02
2023-10-31T07:21:31.725Z,70.57
2023-10-31T07:24:34.087Z,69.72
2023-10-31T07:27:36.935Z,69.75
2023-10-31T07:30:39.300Z,67.22
2023-10-31T07:33:41.663Z,69.03
2023-10-31T07:36:44.039Z,69.22
2023-10-31T07:39:47.166Z,71.30
2023-10-31T07:42:49.725Z,71.72
2023-10-31T07:45:52.132Z,72.70
2023-10-31T07:48:54.521Z,73.10
2023-10-31T07:51:57.079Z,73.53
2023-10-31T07:54:59.676Z,71.74
2023-10-31T07:58:02.012Z,73.04
2023-10-31T08:01:04.611Z,72.34
2023-10-31T08:04:07.325Z,72.25
2023-10-31T08:07:09.830Z,72.26
2023-10-31T08:10:12.414Z,72.27
2023-10-31T08:13:14.761Z,71.03
2023-10-31T08:16:20.645Z,69.81
2023-10-31T08:19:23.100Z,73.22
2023-10-31T08:22:25.523Z,73.53
2023-10-31T08:25:27.879Z,73.52
2023-10-31T08:28:30.218Z,70.50
2023-10-31T08:31:32.648Z,70.67
2023-10-31T08:34:35.158Z,69.62
2023-10-31T08:37:39.137Z,67.11
2023-10-31T08:40:42.514Z,68.80
2023-10-31T08:43:44.841Z,68.53
2023-10-31T08:46:47.341Z,68.97
2023-10-31T08:49:49.904Z,68.82
2023-10-31T08:52:52.265Z,68.16
2023-10-31T08:55:54.638Z,68.40
2023-10-31T08:58:57.114Z,67.41
2023-10-31T09:01:59.542Z,66.23
2023-10-31T09:05:02.043Z,67.15
2023-10-31T09:08:05.029Z,67.80
2023-10-31T09:11:07.415Z,67.43
2023-10-31T09:14:09.854Z,65.84
2023-10-31T09:17:12.293Z,66.90
2023-10-31T09:20:14.725Z,66.97
2023-10-31T09:23:18.401Z,67.93
2023-10-31T09:26:21.263Z,66.63
2023-10-31T09:29:28.661Z,67.57
2023-10-31T09:32:32.860Z,68.08
2023-10-31T09:35:35.324Z,67.90
2023-10-31T09:38:37.677Z,67.61
2023-10-31T09:41:43.229Z,66.52
2023-10-31T09:44:45.912Z,66.43
2023-10-31T09:47:48.465Z,66.13
2023-10-31T09:50:51.375Z,65.05
2023-10-31T09:53:55.057Z,66.01
2023-10-31T09:56:57.564Z,65.51
2023-10-31T10:00:00.110Z,64.30
2023-10-31T10:03:02.787Z,63.46
2023-10-31T10:06:05.830Z,63.46
2023-10-31T10:09:09.645Z,64.93
2023-10-31T10:12:15.814Z,64.92
2023-10-31T10:15:18.161Z,65.84
2023-10-31T10:18:30.345Z,66.81
2023-10-31T10:21:47.077Z,66.61
2023-10-31T10:24:49.472Z,66.46
2023-10-31T10:27:51.809Z,66.65
2023-10-31T10:30:54.954Z,65.87
2023-10-31T10:33:57.369Z,65.49
2023-10-31T10:36:59.802Z,66.64
2023-10-31T10:40:02.209Z,66.55
2023-10-31T10:43:05.028Z,65.80
2023-10-31T10:46:08.052Z,66.54
2023-10-31T10:49:10.436Z,63.19
2023-10-31T10:52:19.703Z,62.03
2023-10-31T10:55:24.795Z,60.78
2023-10-31T10:58:47.444Z,62.06
2023-10-31T11:01:50.008Z,60.85
2023-10-31T11:04:52.585Z,60.12
2023-10-31T11:07:57.591Z,59.76
2023-10-31T11:11:00.115Z,59.81
2023-10-31T11:14:03.463Z,60.21
2023-10-31T11:17:15.366Z,60.21
2023-10-31T11:20:17.956Z,60.70
2023-10-31T11:23:21.348Z,61.41
2023-10-31T11:26:23.794Z,62.39
2023-10-31T11:29:27.167Z,62.33
2023-10-31T11:32:29.579Z,62.38
2023-10-31T11:35:32.085Z,63.26
2023-10-31T11:38:38.857Z,63.88
2023-10-31T11:41:41.387Z,62.55
2023-10-31T11:44:55.984Z,63.87
2023-10-31T11:47:58.568Z,66.15
2023-10-31T11:51:00.913Z,68.88
2023-10-31T11:54:03.597Z,71.50
2023-10-31T11:57:05.978Z,73.84
2023-10-31T12:00:08.710Z,73.12
2023-10-31T12:03:21.206Z,73.70
2023-10-31T12:06:23.780Z,76.45
2023-10-31T12:09:26.188Z,75.32
2023-10-31T12:12:33.832Z,80.28
2023-10-31T12:15:36.492Z,85.67
2023-10-31T12:18:41.922Z,90.29
2023-10-31T12:21:48.806Z,92.45
2023-10-31T12:24:52.202Z,93.39
2023-10-31T12:27:54.694Z,94.19
2023-10-31T12:30:57.913Z,94.20
2023-10-31T12:34:06.305Z,94.60
2023-10-31T12:37:08.661Z,94.92
2023-10-31T12:40:11.728Z,96.43
2023-10-31T12:43:14.625Z,97.02
2023-10-31T12:46:30.575Z,96.86
2023-10-31T12:49:32.960Z,98.31
2023-10-31T12:52:50.889Z,99.03
2023-10-31T12:55:53.746Z,100.00
2023-10-31T12:59:00.311Z,100.00
2023-10-31T13:02:03.043Z,100.00
2023-10-31T13:05:15.586Z,100.00
2023-10-31T13:08:18.083Z,100.00
2023-10-31T13:11:26.720Z,100.00
2023-10-31T13:14:29.287Z,100.00
2023-10-31T13:17:33.503Z,100.00
2023-10-31T13:20:36.039Z,100.00
2023-10-31T13:23:39.734Z,100.00
2023-10-31T13:26:42.122Z,100.00
2023-10-31T13:29:44.511Z,100.00
2023-10-31T13:32:47.051Z,100.00
2023-10-31T13:35:49.489Z,100.00
2023-10-31T13:38:52.110Z,100.00
2023-10-31T13:41:54.531Z,100.00
2023-10-31T13:44:56.899Z,100.00
2023-10-31T13:47:59.269Z,100.00
2023-10-31T13:51:01.648Z,100.00
2023-10-31T13:54:04.206Z,100.00
2023-10-31T13:57:06.665Z,100.00
2023-10-31T14:00:10.210Z,100.00
2023-10-31T14:03:16.715Z,100.00
2023-10-31T14:06:19.227Z,100.00
2023-10-31T14:09:22.329Z,100.00
2023-10-31T14:12:24.991Z,100.00
2023-10-31T14:15:27.336Z,100.00
2023-10-31T14:18:29.661Z,100.00
2023-10-31T14:21:32.144Z,100.00
2023-10-31T14:24:35.641Z,100.00
2023-10-31T14:27:38.019Z,100.00
2023-10-31T14:30:40.358Z,100.00
2023-10-31T14:33:43.467Z,100.00
2023-10-31T14:36:45.953Z,100.00
2023-10-31T14:39:48.341Z,100.00
2023-10-31T14:42:50.755Z,100.00
2023-10-31T14:45:55.375Z,100.00
2023-10-31T14:48:57.742Z,100.00
2023-10-31T14:52:00.242Z,100.00
2023-10-31T14:55:02.603Z,100.00
2023-10-31T14:58:05.065Z,100.00
2023-10-31T15:01:07.567Z,100.00
2023-10-31T15:04:10.211Z,100.00
2023-10-31T15:07:13.142Z,100.00
2023-10-31T15:10:15.500Z,100.00
2023-10-31T15:13:17.930Z,100.00
2023-10-31T15:16:20.414Z,100.00
2023-10-31T15:19:22.869Z,100.00
2023-10-31T15:22:25.257Z,100.00
2023-10-31T15:25:27.589Z,100.00
2023-10-31T15:28:29.988Z,100.00
2023-10-31T15:31:32.384Z,100.00
2023-10-31T15:34:34.820Z,100.00
2023-10-31T15:37:37.337Z,100.00
2023-10-31T15:40:39.683Z,100.00
2023-10-31T15:43:42.120Z,100.00
2023-10-31T15:46:44.661Z,100.00
2023-10-31T15:49:47.049Z,100.00
2023-10-31T15:52:49.452Z,100.00
2023-10-31T15:55:52.243Z,100.00
2023-10-31T15:58:55.131Z,100.00
2023-10-31T16:01:57.468Z,100.00
2023-10-31T16:05:00.258Z,100.00
2023-10-31T16:08:03.274Z,100.00
2023-10-31T16:11:05.819Z,100.00
2023-10-31T16:14:08.243Z,100.00
2023-10-31T16:17:10.797Z,100.00
2023-10-31T16:20:13.295Z,100.00
2023-10-31T16:23:18.537Z,100.00
2023-10-31T16:26:21.125Z,100.00
2023-10-31T16:29:23.599Z,100.00
2023-10-31T16:32:26.028Z,100.00
2023-10-31T16:35:28.499Z,100.00
2023-10-31T16:38:30.930Z,100.00
2023-10-31T16:41:33.671Z,100.00
2023-10-31T16:44:36.234Z,100.00
2023-10-31T16:47:38.702Z,100.00
2023-10-31T16:50:41.134Z,100.00
2023-10-31T16:53:43.856Z,100.00
2023-10-31T16:56:46.330Z,100.00
2023-10-31T16:59:48.894Z,100.00
2023-10-31T17:02:51.380Z,100.00
2023-10-31T17:05:53.791Z,100.00
2023-10-31T17:08:57.864Z,100.00
2023-10-31T17:12:00.342Z,100.00
2023-10-31T17:15:02.805Z,100.00
2023-10-31T17:18:08.625Z,100.00
2023-10-31T17:21:11.161Z,100.00
2023-10-31T17:24:15.299Z,100.00
2023-10-31T17:27:20.739Z,100.00
2023-10-31T17:30:23.129Z,100.00
2023-10-31T17:33:29.211Z,100.00
2023-10-31T17:36:32.390Z,100.00
2023-10-31T17:39:35.854Z,100.00
2023-10-31T17:42:38.261Z,100.00
2023-10-31T17:45:40.593Z,100.00
2023-10-31T17:48:42.960Z,100.00
2023-10-31T17:51:45.363Z,100.00
2023-10-31T17:54:48.141Z,100.00
2023-10-31T17:57:50.593Z,100.00
2023-10-31T18:00:53.281Z,100.00
2023-10-31T18:03:55.728Z,100.00
2023-10-31T18:06:58.194Z,100.00
2023-10-31T18:10:00.522Z,100.00
2023-10-31T18:13:04.400Z,100.00
2023-10-31T18:16:07.160Z,100.00
2023-10-31T18:19:09.958Z,100.00
2023-10-31T18:22:12.314Z,100.00
2023-10-31T18:25:14.711Z,100.00
2023-10-31T18:28:17.075Z,100.00
2023-10-31T18:31:19.509Z,100.00
2023-10-31T18:34:22.291Z,100.00
2023-10-31T18:37:24.663Z,100.00
2023-10-31T18:40:27.006Z,99.94
2023-10-31T18:43:29.726Z,100.00
2023-10-31T18:46:32.098Z,99.90
2023-10-31T18:49:34.509Z,97.76
2023-10-31T18:52:36.900Z,96.50
2023-10-31T18:55:39.952Z,96.57
2023-10-31T18:58:43.607Z,95.90
2023-10-31T19:01:49.595Z,95.74
2023-10-31T19:04:52.036Z,96.00
2023-10-31T19:07:54.441Z,96.01
2023-10-31T19:10:56.862Z,96.19
2023-10-31T19:13:59.233Z,96.56
2023-10-31T19:17:01.642Z,97.64
2023-10-31T19:20:04.295Z,97.06
2023-10-31T19:23:06.839Z,97.95
2023-10-31T19:26:09.247Z,98.67
2023-10-31T19:29:11.655Z,99.27
2023-10-31T19:32:14.211Z,98.33
2023-10-31T19:35:16.794Z,98.57
2023-10-31T19:38:19.217Z,99.04
2023-10-31T19:41:21.731Z,98.09
2023-10-31T19:44:24.146Z,97.32
2023-10-31T19:47:26.571Z,98.38
2023-10-31T19:50:29.040Z,97.48
2023-10-31T19:53:31.499Z,96.89
2023-10-31T19:56:34.095Z,96.03
2023-10-31T19:59:39.525Z,97.94
2023-10-31T20:02:44.504Z,96.74
2023-10-31T20:05:48.870Z,97.47
2023-10-31T20:08:51.265Z,98.57
2023-10-31T20:11:53.600Z,98.44
2023-10-31T20:15:00.517Z,99.10
2023-10-31T20:18:04.879Z,99.23
2023-10-31T20:21:07.502Z,99.25
2023-10-31T20:24:09.917Z,99.24
2023-10-31T20:27:12.278Z,100.00
2023-10-31T20:30:14.692Z,99.20
2023-10-31T20:33:17.100Z,98.62
2023-10-31T20:36:19.486Z,98.09
2023-10-31T20:39:21.893Z,98.36
2023-10-31T20:42:24.275Z,98.93
2023-10-31T20:45:26.647Z,100.00
2023-10-31T20:48:29.036Z,100.00
2023-10-31T20:51:31.543Z,100.00
2023-10-31T20:54:33.955Z,99.33
2023-10-31T20:57:36.364Z,98.64
2023-10-31T21:00:39.023Z,98.67
2023-10-31T21:03:41.445Z,98.95
2023-10-31T21:06:43.914Z,98.89
2023-10-31T21:09:46.818Z,98.85
2023-10-31T21:12:49.419Z,100.00
2023-10-31T21:15:52.752Z,100.00
2023-10-31T21:18:55.277Z,100.00
2023-10-31T21:21:57.995Z,100.00
2023-10-31T21:25:00.468Z,100.00
2023-10-31T21:28:03.784Z,99.97
2023-10-31T21:31:06.262Z,99.62
2023-10-31T21:34:11.589Z,99.42
2023-10-31T21:37:15.000Z,98.76
2023-10-31T21:40:17.346Z,98.73
2023-10-31T21:43:19.755Z,98.58
2023-10-31T21:46:22.144Z,99.49
2023-10-31T21:49:25.852Z,99.99
2023-10-31T21:52:28.327Z,99.55
2023-10-31T21:55:30.876Z,99.91
2023-10-31T21:58:33.342Z,99.40
2023-10-31T22:01:35.800Z,100.00
2023-10-31T22:04:38.220Z,100.00
2023-10-31T22:07:40.620Z,100.00
2023-10-31T22:10:43.062Z,98.81
2023-10-31T22:13:45.506Z,98.71
2023-10-31T22:16:47.886Z,98.95
2023-10-31T22:19:50.224Z,97.98
2023-10-31T22:22:52.596Z,97.81
2023-10-31T22:25:55.040Z,98.84
2023-10-31T22:28:57.503Z,98.72
2023-10-31T22:31:59.939Z,97.82
2023-10-31T22:35:02.548Z,98.04
2023-10-31T22:38:05.223Z,97.84
2023-10-31T22:41:07.789Z,97.17
2023-10-31T22:44:10.294Z,96.68
2023-10-31T22:47:12.813Z,97.12
2023-10-31T22:50:15.328Z,96.64
2023-10-31T22:53:17.829Z,96.52
2023-10-31T22:56:20.215Z,96.60
2023-10-31T22:59:22.599Z,97.08
2023-10-31T23:02:25.682Z,97.19
2023-10-31T23:05:32.000Z,97.08
2023-10-31T23:08:34.451Z,97.25
2023-10-31T23:11:36.823Z,97.44
2023-10-31T23:14:39.205Z,97.65
2023-10-31T23:17:42.663Z,97.45
2023-10-31T23:20:45.349Z,98.08
2023-10-31T23:23:47.742Z,97.63
2023-10-31T23:26:50.117Z,96.37
2023-10-31T23:29:52.588Z,96.21
2023-10-31T23:32:54.931Z,96.33
2023-10-31T23:35:57.363Z,97.12
2023-10-31T23:38:59.773Z,96.75
2023-10-31T23:42:02.142Z,95.96
2023-10-31T23:45:05.375Z,96.02
2023-10-31T23:48:10.641Z,95.99
2023-10-31T23:51:13.055Z,96.23
2023-10-31T23:54:15.465Z,96.57
2023-10-31T23:57:17.797Z,96.96
